Time;durP1;ratioP1;P1;durP2;ratioP2;P2;SDS_P1;SDS_P2;PMS_P1;PMS_P2;Temp;Humidity;BMP_temperature;BMP_pressure;BME280_temperature;BME280_humidity;BME280_pressure;Samples;Min_cycle;Max_cycle;Signal;HPM_P1;HPM_P2
2024/01/23 00:00:35;;;;;;;6.63;1.63;;;;;;;;;;5051742;28;20052;-67
2024/01/23 00:03:01;;;;;;;3.78;1.50;;;;;;;;;;5053129;28;20076;-67
2024/01/23 00:05:29;;;;;;;6.45;1.58;;;;;;;;;;5046069;28;20045;-67
2024/01/23 00:07:56;;;;;;;3.90;1.27;;;;;;;;;;5052101;28;20132;-67
2024/01/23 00:10:22;;;;;;;4.95;2.15;;;;;;;;;;5039381;28;20048;-67
2024/01/23 00:12:49;;;;;;;8.05;1.40;;;;;;;;;;5048224;28;20076;-67
2024/01/23 00:15:15;;;;;;;2.85;1.20;;;;;;;;;;5045544;28;20464;-67
2024/01/23 00:17:42;;;;;;;5.13;1.58;;;;;;;;;;5044998;28;20496;-68
2024/01/23 00:20:08;;;;;;;7.15;2.10;;;;;;;;;;5038222;28;20055;-67
2024/01/23 00:22:36;;;;;;;10.68;2.15;;;;;;;;;;5052737;28;20048;-67
2024/01/23 00:25:03;;;;;;;6.07;1.83;;;;;;;;;;5038272;28;20056;-67
2024/01/23 00:27:29;;;;;;;5.65;1.73;;;;;;;;;;5045596;28;20052;-67
2024/01/23 00:29:56;;;;;;;5.35;1.73;;;;;;;;;;5045163;28;20045;-67
2024/01/23 00:32:23;;;;;;;7.35;1.98;;;;;;;;;;5047035;28;20047;-67
2024/01/23 00:34:50;;;;;;;6.35;1.48;;;;;;;;;;5049035;28;20498;-67
2024/01/23 00:37:16;;;;;;;7.80;1.67;;;;;;;;;;5045191;28;20052;-67
2024/01/23 00:39:45;;;;;;;6.88;1.30;;;;;;;;;;5052878;28;20045;-67
2024/01/23 00:42:11;;;;;;;10.40;2.35;;;;;;;;;;5048394;28;20049;-67
2024/01/23 00:44:38;;;;;;;8.00;1.70;;;;;;;;;;5042145;28;20051;-67
2024/01/23 00:47:05;;;;;;;3.80;1.45;;;;;;;;;;5044936;28;20048;-67
2024/01/23 00:49:31;;;;;;;9.43;2.00;;;;;;;;;;5044678;28;20090;-68
2024/01/23 00:51:57;;;;;;;8.75;1.30;;;;;;;;;;5051606;28;20405;-67
2024/01/23 00:54:25;;;;;;;9.60;1.70;;;;;;;;;;5047807;28;20068;-67
2024/01/23 00:56:53;;;;;;;7.85;2.00;;;;;;;;;;5052199;28;20056;-67
2024/01/23 00:59:19;;;;;;;9.30;1.38;;;;;;;;;;5050293;28;20047;-68
2024/01/23 01:01:45;;;;;;;7.10;1.35;;;;;;;;;;5050392;28;20045;-67
2024/01/23 01:04:12;;;;;;;8.52;1.60;;;;;;;;;;5051991;28;20047;-67
2024/01/23 01:06:38;;;;;;;7.38;1.63;;;;;;;;;;5041793;28;20061;-67
2024/01/23 01:09:05;;;;;;;4.93;1.55;;;;;;;;;;5036520;28;20386;-67
2024/01/23 01:11:31;;;;;;;10.52;1.80;;;;;;;;;;5046535;28;20064;-67
2024/01/23 01:13:59;;;;;;;5.93;1.65;;;;;;;;;;5051888;28;20134;-67
2024/01/23 01:16:26;;;;;;;6.55;1.48;;;;;;;;;;5045427;28;20077;-67
2024/01/23 01:18:52;;;;;;;2.42;1.02;;;;;;;;;;5035514;28;20053;-67
2024/01/23 01:21:19;;;;;;;8.45;1.55;;;;;;;;;;5046793;28;20046;-68
2024/01/23 01:23:45;;;;;;;7.78;1.30;;;;;;;;;;5041966;28;20046;-67
2024/01/23 01:26:11;;;;;;;9.43;3.00;;;;;;;;;;5047293;28;20528;-67
2024/01/23 01:28:38;;;;;;;7.18;1.70;;;;;;;;;;5045005;28;20053;-67
2024/01/23 01:31:06;;;;;;;3.83;1.50;;;;;;;;;;5044333;28;20516;-67
2024/01/23 01:33:32;;;;;;;12.02;2.05;;;;;;;;;;5041605;28;20512;-67
2024/01/23 01:35:59;;;;;;;9.38;2.35;;;;;;;;;;5036363;28;20048;-67
2024/01/23 01:38:25;;;;;;;7.88;1.60;;;;;;;;;;5051330;28;20052;-67
2024/01/23 01:40:51;;;;;;;5.13;1.30;;;;;;;;;;5043717;28;20067;-67
2024/01/23 01:43:25;;;;;;;10.15;1.58;;;;;;;;;;5051185;28;20049;-67
2024/01/23 01:45:56;;;;;;;7.40;1.58;;;;;;;;;;5048082;28;20055;-67
2024/01/23 01:48:25;;;;;;;6.68;1.40;;;;;;;;;;5050569;28;20398;-67
2024/01/23 01:50:52;;;;;;;5.25;1.55;;;;;;;;;;5041925;28;20049;-67
2024/01/23 01:53:19;;;;;;;8.45;2.05;;;;;;;;;;5039219;28;20488;-67
2024/01/23 01:55:45;;;;;;;4.93;1.45;;;;;;;;;;5043550;28;20049;-67
2024/01/23 01:58:13;;;;;;;7.13;1.60;;;;;;;;;;5051129;28;20152;-67
2024/01/23 02:00:40;;;;;;;10.23;1.75;;;;;;;;;;5039926;28;20045;-67
2024/01/23 02:03:06;;;;;;;7.90;1.50;;;;;;;;;;5036132;28;20045;-68
2024/01/23 02:05:34;;;;;;;4.82;1.20;;;;;;;;;;5043867;28;20053;-67
2024/01/23 02:08:00;;;;;;;9.90;2.25;;;;;;;;;;5039415;28;20045;-67
2024/01/23 02:10:26;;;;;;;5.43;1.40;;;;;;;;;;5036869;28;20048;-66
2024/01/23 02:12:53;;;;;;;9.05;1.80;;;;;;;;;;5044197;28;20088;-67
2024/01/23 02:15:20;;;;;;;10.82;1.95;;;;;;;;;;5037251;28;20048;-66
2024/01/23 02:17:46;;;;;;;7.95;1.60;;;;;;;;;;5047434;28;20048;-67
2024/01/23 02:20:12;;;;;;;8.05;2.00;;;;;;;;;;5045433;28;20129;-67
2024/01/23 02:22:40;;;;;;;9.32;1.80;;;;;;;;;;5044158;28;20041;-67
2024/01/23 02:25:08;;;;;;;4.25;1.30;;;;;;;;;;5046837;28;20049;-67
2024/01/23 02:27:35;;;;;;;8.02;1.60;;;;;;;;;;5039893;28;20489;-67
2024/01/23 02:30:01;;;;;;;5.93;1.83;;;;;;;;;;5049122;28;20122;-67
2024/01/23 02:32:27;;;;;;;8.55;2.03;;;;;;;;;;5036429;28;20470;-67
2024/01/23 02:34:54;;;;;;;6.45;1.98;;;;;;;;;;5036529;28;20063;-67
2024/01/23 02:37:20;;;;;;;6.88;1.98;;;;;;;;;;5037616;28;20045;-67
2024/01/23 02:39:46;;;;;;;9.75;1.77;;;;;;;;;;5045939;28;20060;-67
2024/01/23 02:42:14;;;;;;;4.47;1.45;;;;;;;;;;5038635;28;20049;-67
2024/01/23 02:44:45;;;;;;;8.70;1.92;;;;;;;;;;5047605;28;20489;-67
2024/01/23 02:47:11;;;;;;;5.70;1.60;;;;;;;;;;5038119;28;20048;-67
2024/01/23 02:49:38;;;;;;;7.25;1.77;;;;;;;;;;5032414;28;20549;-67
2024/01/23 02:52:04;;;;;;;10.05;1.70;;;;;;;;;;5050298;28;20053;-67
2024/01/23 02:54:32;;;;;;;12.52;1.98;;;;;;;;;;5050377;28;20132;-67
2024/01/23 02:56:58;;;;;;;7.65;2.63;;;;;;;;;;5046620;28;20436;-67
2024/01/23 02:59:26;;;;;;;8.40;2.05;;;;;;;;;;5045172;28;20041;-67
2024/01/23 03:01:52;;;;;;;10.35;1.90;;;;;;;;;;5049318;28;20067;-67
2024/01/23 03:04:18;;;;;;;5.28;1.77;;;;;;;;;;5050051;28;20049;-67
2024/01/23 03:06:45;;;;;;;9.70;1.67;;;;;;;;;;5048203;28;20342;-67
2024/01/23 03:09:13;;;;;;;5.95;2.00;;;;;;;;;;5042603;28;20045;-66
2024/01/23 03:11:40;;;;;;;6.55;1.70;;;;;;;;;;5050250;28;20255;-66
2024/01/23 03:14:06;;;;;;;11.95;1.83;;;;;;;;;;5035869;28;20106;-67
2024/01/23 03:16:34;;;;;;;8.55;2.20;;;;;;;;;;5050189;28;20420;-67
2024/01/23 03:19:00;;;;;;;7.40;1.70;;;;;;;;;;5046293;28;20505;-67
2024/01/23 03:21:27;;;;;;;14.93;2.20;;;;;;;;;;5042565;28;20048;-67
2024/01/23 03:23:53;;;;;;;12.32;2.15;;;;;;;;;;5041895;28;20057;-67
2024/01/23 03:26:20;;;;;;;10.68;1.92;;;;;;;;;;5047247;28;20072;-67
2024/01/23 03:28:47;;;;;;;9.07;2.10;;;;;;;;;;5048714;28;20044;-67
2024/01/23 03:31:13;;;;;;;10.43;2.13;;;;;;;;;;5050011;28;20396;-67
2024/01/23 03:33:42;;;;;;;7.10;2.30;;;;;;;;;;5049216;28;20136;-67
2024/01/23 03:36:08;;;;;;;12.95;1.95;;;;;;;;;;5040405;28;20425;-67
2024/01/23 03:38:35;;;;;;;5.18;2.22;;;;;;;;;;5041553;28;20059;-67
2024/01/23 03:41:01;;;;;;;9.70;2.13;;;;;;;;;;5048105;28;20049;-67
2024/01/23 03:43:28;;;;;;;8.13;2.22;;;;;;;;;;5049338;28;20049;-67
2024/01/23 03:45:54;;;;;;;4.93;1.90;;;;;;;;;;5037400;28;20051;-67
2024/01/23 03:48:21;;;;;;;9.70;1.90;;;;;;;;;;5045746;28;20052;-68
2024/01/23 03:50:49;;;;;;;9.70;2.05;;;;;;;;;;5041920;28;20424;-67
2024/01/23 03:53:15;;;;;;;11.63;2.15;;;;;;;;;;5050113;28;20563;-68
2024/01/23 03:55:42;;;;;;;9.93;1.80;;;;;;;;;;5039131;28;20081;-67
2024/01/23 03:58:08;;;;;;;10.55;1.85;;;;;;;;;;5049833;28;20051;-67
2024/01/23 04:00:34;;;;;;;6.82;1.98;;;;;;;;;;5047910;28;20128;-66
2024/01/23 04:03:02;;;;;;;12.38;1.75;;;;;;;;;;5049672;28;20040;-67
2024/01/23 04:05:29;;;;;;;8.25;1.90;;;;;;;;;;5046846;28;20412;-67
2024/01/23 04:07:57;;;;;;;13.82;1.92;;;;;;;;;;5038694;28;20045;-67
2024/01/23 04:10:23;;;;;;;9.20;1.98;;;;;;;;;;5047727;28;20041;-67
2024/01/23 04:12:49;;;;;;;11.00;1.80;;;;;;;;;;5047710;28;20132;-67
2024/01/23 04:15:16;;;;;;;10.23;2.13;;;;;;;;;;5044196;28;20055;-67
2024/01/23 04:17:42;;;;;;;5.05;1.65;;;;;;;;;;5047090;28;20515;-67
2024/01/23 04:20:09;;;;;;;6.20;1.50;;;;;;;;;;5049397;28;20053;-67
2024/01/23 04:22:35;;;;;;;15.82;2.42;;;;;;;;;;5046264;28;20552;-67
2024/01/23 04:25:04;;;;;;;11.45;2.35;;;;;;;;;;5047914;28;20052;-67
2024/01/23 04:27:31;;;;;;;5.88;1.80;;;;;;;;;;5041584;28;20441;-67
2024/01/23 04:29:57;;;;;;;8.98;1.80;;;;;;;;;;5042701;28;20045;-67
2024/01/23 04:32:24;;;;;;;4.80;1.80;;;;;;;;;;5050090;28;20052;-67
2024/01/23 04:34:50;;;;;;;12.27;2.17;;;;;;;;;;5050238;28;20519;-67
2024/01/23 04:37:16;;;;;;;12.55;1.83;;;;;;;;;;5046976;28;20045;-68
2024/01/23 04:39:43;;;;;;;9.05;2.22;;;;;;;;;;5051735;28;20044;-67
2024/01/23 04:42:10;;;;;;;9.65;1.73;;;;;;;;;;5045809;28;20052;-68
2024/01/23 04:44:37;;;;;;;8.23;1.85;;;;;;;;;;5049529;28;20049;-67
2024/01/23 04:47:03;;;;;;;8.13;1.73;;;;;;;;;;5052744;28;20440;-67
2024/01/23 04:49:30;;;;;;;8.07;1.85;;;;;;;;;;5046358;28;20059;-67
2024/01/23 04:51:57;;;;;;;8.40;1.95;;;;;;;;;;5052579;28;20052;-67
2024/01/23 04:54:23;;;;;;;8.25;2.05;;;;;;;;;;5049744;28;20059;-67
2024/01/23 04:56:50;;;;;;;12.35;2.55;;;;;;;;;;5045481;28;20065;-67
2024/01/23 04:59:17;;;;;;;8.82;2.10;;;;;;;;;;5048583;28;20516;-67
2024/01/23 05:01:44;;;;;;;8.50;1.90;;;;;;;;;;5043627;28;20049;-67
2024/01/23 05:04:10;;;;;;;13.18;2.85;;;;;;;;;;5051897;28;20045;-67
2024/01/23 05:06:36;;;;;;;6.85;1.50;;;;;;;;;;5044614;28;20491;-67
2024/01/23 05:09:03;;;;;;;7.32;2.65;;;;;;;;;;5048004;28;20041;-67
2024/01/23 05:11:29;;;;;;;11.82;1.88;;;;;;;;;;5041793;28;20474;-67
2024/01/23 05:13:56;;;;;;;8.23;2.45;;;;;;;;;;5051391;28;20249;-67
2024/01/23 05:16:23;;;;;;;11.32;3.67;;;;;;;;;;5045908;28;20067;-67
2024/01/23 05:18:50;;;;;;;11.13;2.78;;;;;;;;;;5050602;28;20071;-67
2024/01/23 05:21:16;;;;;;;8.50;2.03;;;;;;;;;;5045931;28;20132;-67
2024/01/23 05:23:43;;;;;;;6.72;1.95;;;;;;;;;;5048967;28;20123;-67
2024/01/23 05:26:09;;;;;;;11.00;2.17;;;;;;;;;;5040741;28;20051;-67
2024/01/23 05:28:36;;;;;;;11.68;2.38;;;;;;;;;;5048534;28;20045;-67
2024/01/23 05:31:02;;;;;;;6.38;1.88;;;;;;;;;;5044246;28;20059;-67
2024/01/23 05:33:30;;;;;;;8.75;1.65;;;;;;;;;;5048864;28;20049;-67
2024/01/23 05:35:56;;;;;;;9.90;2.25;;;;;;;;;;5052073;28;20055;-68
2024/01/23 05:38:23;;;;;;;6.70;1.77;;;;;;;;;;5048498;28;20045;-67
2024/01/23 05:40:49;;;;;;;11.18;1.83;;;;;;;;;;5047448;28;20073;-67
2024/01/23 05:43:16;;;;;;;9.80;2.17;;;;;;;;;;5052129;28;20059;-68
2024/01/23 05:45:42;;;;;;;10.30;1.65;;;;;;;;;;5051025;28;20045;-67
2024/01/23 05:48:08;;;;;;;9.10;1.98;;;;;;;;;;5046999;28;20507;-67
2024/01/23 05:50:36;;;;;;;8.45;2.63;;;;;;;;;;5047264;28;20428;-67
2024/01/23 05:53:03;;;;;;;5.45;1.50;;;;;;;;;;5043345;28;20132;-67
2024/01/23 05:55:29;;;;;;;9.13;1.92;;;;;;;;;;5051829;28;20049;-68
2024/01/23 05:57:55;;;;;;;9.52;2.22;;;;;;;;;;5050348;28;20072;-67
2024/01/23 06:00:22;;;;;;;10.25;1.65;;;;;;;;;;5049554;28;20132;-68
2024/01/23 06:02:49;;;;;;;8.55;2.05;;;;;;;;;;5043066;28;20413;-67
2024/01/23 06:05:15;;;;;;;12.63;2.10;;;;;;;;;;5048528;28;20429;-68
2024/01/23 06:07:48;;;;;;;8.25;1.90;;;;;;;;;;5042622;28;20051;-67
2024/01/23 06:10:15;;;;;;;5.85;1.60;;;;;;;;;;5042988;28;20045;-67
2024/01/23 06:12:41;;;;;;;9.00;1.80;;;;;;;;;;5048852;28;20055;-67
2024/01/23 06:15:08;;;;;;;8.57;1.73;;;;;;;;;;5051584;28;20057;-67
2024/01/23 06:17:34;;;;;;;7.68;1.92;;;;;;;;;;5034785;28;20052;-67
2024/01/23 06:20:04;;;;;;;10.32;2.03;;;;;;;;;;5046929;28;20436;-67
2024/01/23 06:22:30;;;;;;;5.97;2.08;;;;;;;;;;5043459;28;20048;-67
2024/01/23 06:25:04;;;;;;;12.65;2.75;;;;;;;;;;5050866;28;20046;-68
2024/01/23 06:27:31;;;;;;;8.75;1.73;;;;;;;;;;5042812;28;20053;-67
2024/01/23 06:29:57;;;;;;;8.20;1.90;;;;;;;;;;5046693;28;20041;-67
2024/01/23 06:32:24;;;;;;;7.43;1.80;;;;;;;;;;5042961;28;20111;-67
2024/01/23 06:34:50;;;;;;;9.48;2.40;;;;;;;;;;5050953;28;20045;-67
2024/01/23 06:37:17;;;;;;;9.02;2.25;;;;;;;;;;5043097;28;20060;-67
2024/01/23 06:39:43;;;;;;;8.25;2.38;;;;;;;;;;5042178;28;20051;-67
2024/01/23 06:42:11;;;;;;;10.52;2.40;;;;;;;;;;5040323;28;20405;-67
2024/01/23 06:44:37;;;;;;;14.90;2.45;;;;;;;;;;5039714;28;20045;-67
2024/01/23 06:47:04;;;;;;;5.40;1.75;;;;;;;;;;5050080;28;20140;-67
2024/01/23 06:49:30;;;;;;;11.38;2.47;;;;;;;;;;5048610;28;20061;-68
2024/01/23 06:51:57;;;;;;;4.65;1.98;;;;;;;;;;5049261;28;20071;-67
2024/01/23 06:54:23;;;;;;;12.10;2.47;;;;;;;;;;5049419;28;20136;-67
2024/01/23 06:56:50;;;;;;;9.70;2.30;;;;;;;;;;5041612;28;20049;-67
2024/01/23 06:59:17;;;;;;;10.25;2.33;;;;;;;;;;5047992;28;20083;-67
2024/01/23 07:01:44;;;;;;;13.32;2.67;;;;;;;;;;5048418;28;20041;-67
2024/01/23 07:04:10;;;;;;;11.18;2.90;;;;;;;;;;5050109;28;20521;-67
2024/01/23 07:06:37;;;;;;;14.32;3.30;;;;;;;;;;5038671;28;20512;-66
2024/01/23 07:09:04;;;;;;;10.82;3.45;;;;;;;;;;5049320;28;20051;-66
2024/01/23 07:11:30;;;;;;;11.43;2.72;;;;;;;;;;5042017;28;20053;-67
2024/01/23 07:13:57;;;;;;;8.90;2.25;;;;;;;;;;5049015;28;20505;-67
2024/01/23 07:16:24;;;;;;;9.73;2.50;;;;;;;;;;5047375;28;20421;-67
2024/01/23 07:18:51;;;;;;;10.90;2.75;;;;;;;;;;5049061;28;20045;-67
2024/01/23 07:21:18;;;;;;;9.32;2.42;;;;;;;;;;5049406;28;20080;-67
2024/01/23 07:23:44;;;;;;;9.27;2.90;;;;;;;;;;5047039;28;20500;-67
2024/01/23 07:26:11;;;;;;;9.15;2.83;;;;;;;;;;5049371;28;20049;-67
2024/01/23 07:28:39;;;;;;;8.75;2.80;;;;;;;;;;5043181;28;20048;-67
2024/01/23 07:31:05;;;;;;;9.27;2.95;;;;;;;;;;5042026;28;20124;-67
2024/01/23 07:33:34;;;;;;;6.55;2.17;;;;;;;;;;5046516;28;20085;-67
2024/01/23 07:36:01;;;;;;;9.23;2.60;;;;;;;;;;5049894;28;20049;-67
2024/01/23 07:38:27;;;;;;;8.02;2.20;;;;;;;;;;5042316;28;20052;-67
2024/01/23 07:40:53;;;;;;;13.07;3.03;;;;;;;;;;5048536;28;20511;-67
2024/01/23 07:43:24;;;;;;;10.98;2.97;;;;;;;;;;5049233;28;20041;-67
2024/01/23 07:45:50;;;;;;;8.90;3.72;;;;;;;;;;5046169;28;20049;-67
2024/01/23 07:48:17;;;;;;;13.48;3.13;;;;;;;;;;5049613;28;20053;-67
2024/01/23 07:50:44;;;;;;;9.05;2.67;;;;;;;;;;5047970;28;20576;-67
2024/01/23 07:53:11;;;;;;;10.20;3.45;;;;;;;;;;5042500;28;20552;-67
2024/01/23 07:55:37;;;;;;;11.80;3.08;;;;;;;;;;5050275;28;20049;-67
2024/01/23 07:58:04;;;;;;;16.10;4.28;;;;;;;;;;5048266;28;20044;-67
2024/01/23 08:00:30;;;;;;;10.68;3.92;;;;;;;;;;5048697;28;20055;-67
2024/01/23 08:02:57;;;;;;;11.52;3.35;;;;;;;;;;5042870;28;20136;-67
2024/01/23 08:05:23;;;;;;;9.32;3.70;;;;;;;;;;5050580;28;20055;-67
2024/01/23 08:07:51;;;;;;;13.20;3.88;;;;;;;;;;5048915;28;20045;-68
2024/01/23 08:10:20;;;;;;;9.48;4.20;;;;;;;;;;5052669;28;20128;-67
2024/01/23 08:12:47;;;;;;;7.40;3.83;;;;;;;;;;5053518;28;20493;-67
2024/01/23 08:15:13;;;;;;;7.43;3.08;;;;;;;;;;5052259;28;20055;-67
2024/01/23 08:17:40;;;;;;;6.15;2.58;;;;;;;;;;5052262;28;20124;-68
2024/01/23 08:20:08;;;;;;;12.55;2.85;;;;;;;;;;5049103;28;20076;-68
2024/01/23 08:22:34;;;;;;;15.40;3.95;;;;;;;;;;5044962;28;20088;-67
2024/01/23 08:25:02;;;;;;;10.63;2.70;;;;;;;;;;5053473;28;20052;-67
2024/01/23 08:27:28;;;;;;;11.70;3.03;;;;;;;;;;5052122;28;20049;-67
2024/01/23 08:29:55;;;;;;;12.25;3.30;;;;;;;;;;5051920;28;20049;-67
2024/01/23 08:32:21;;;;;;;11.90;3.72;;;;;;;;;;5050137;28;20421;-67
2024/01/23 08:34:48;;;;;;;9.00;3.15;;;;;;;;;;5051744;28;20057;-67
2024/01/23 08:37:14;;;;;;;7.00;2.40;;;;;;;;;;5051156;28;20078;-67
2024/01/23 08:39:42;;;;;;;15.85;4.93;;;;;;;;;;5048500;28;20052;-67
2024/01/23 08:42:09;;;;;;;8.98;3.92;;;;;;;;;;5051788;28;20485;-67
2024/01/23 08:44:36;;;;;;;10.32;2.60;;;;;;;;;;5049964;28;20049;-67
2024/01/23 08:47:03;;;;;;;9.50;2.58;;;;;;;;;;5051711;28;20524;-67
2024/01/23 08:49:29;;;;;;;9.27;3.20;;;;;;;;;;5052009;28;20504;-67
2024/01/23 08:51:56;;;;;;;9.10;2.58;;;;;;;;;;5052455;28;20045;-67
2024/01/23 08:54:22;;;;;;;11.45;2.72;;;;;;;;;;5045699;28;20051;-68
2024/01/23 08:56:50;;;;;;;9.65;2.10;;;;;;;;;;5039683;28;20046;-67
2024/01/23 08:59:18;;;;;;;8.65;2.33;;;;;;;;;;5041286;28;20049;-67
2024/01/23 09:01:44;;;;;;;11.10;2.50;;;;;;;;;;5050515;28;20052;-67
2024/01/23 09:04:10;;;;;;;9.40;2.17;;;;;;;;;;5037077;28;20048;-68
2024/01/23 09:06:37;;;;;;;8.70;2.35;;;;;;;;;;5049898;28;20059;-67
2024/01/23 09:09:04;;;;;;;11.18;2.67;;;;;;;;;;5042834;28;20049;-67
2024/01/23 09:11:30;;;;;;;12.40;2.15;;;;;;;;;;5051737;28;20045;-67
2024/01/23 09:13:56;;;;;;;11.77;2.20;;;;;;;;;;5046874;28;20549;-67
2024/01/23 09:16:24;;;;;;;12.57;2.30;;;;;;;;;;5042518;28;20045;-67
2024/01/23 09:18:51;;;;;;;9.18;2.13;;;;;;;;;;5048883;28;20044;-67
2024/01/23 09:21:17;;;;;;;10.30;2.25;;;;;;;;;;5051663;28;20045;-68
2024/01/23 09:23:44;;;;;;;8.25;1.95;;;;;;;;;;5043681;28;20050;-67
2024/01/23 09:26:11;;;;;;;14.00;2.60;;;;;;;;;;5048164;28;20041;-67
2024/01/23 09:28:37;;;;;;;9.55;2.28;;;;;;;;;;5051108;28;20041;-67
2024/01/23 09:31:04;;;;;;;13.05;2.85;;;;;;;;;;5047834;28;20406;-67
2024/01/23 09:33:31;;;;;;;12.73;2.17;;;;;;;;;;5044230;28;20128;-67
2024/01/23 09:35:58;;;;;;;9.75;2.38;;;;;;;;;;5042860;28;20162;-67
2024/01/23 09:38:24;;;;;;;7.05;2.25;;;;;;;;;;5044444;28;20063;-67
2024/01/23 09:40:51;;;;;;;16.58;3.40;;;;;;;;;;5047616;28;20059;-67
2024/01/23 09:43:19;;;;;;;18.83;4.13;;;;;;;;;;5043631;28;20041;-68
2024/01/23 09:45:47;;;;;;;8.88;2.20;;;;;;;;;;5047228;28;20519;-67
2024/01/23 09:48:14;;;;;;;10.93;2.55;;;;;;;;;;5038949;28;20049;-67
2024/01/23 09:50:42;;;;;;;9.23;2.17;;;;;;;;;;5038944;28;20049;-67
2024/01/23 09:53:10;;;;;;;14.77;2.60;;;;;;;;;;5050762;28;20059;-67
2024/01/23 09:55:36;;;;;;;10.27;2.35;;;;;;;;;;5042757;28;20049;-67
2024/01/23 09:58:03;;;;;;;11.70;2.80;;;;;;;;;;5048154;28;20060;-67
2024/01/23 10:00:30;;;;;;;9.27;2.10;;;;;;;;;;5048272;28;20858;-67
2024/01/23 10:02:56;;;;;;;7.72;2.15;;;;;;;;;;5042869;28;20424;-67
2024/01/23 10:05:23;;;;;;;11.00;3.10;;;;;;;;;;5046977;28;20059;-67
2024/01/23 10:07:50;;;;;;;8.23;1.70;;;;;;;;;;5046499;28;20233;-67
2024/01/23 10:10:18;;;;;;;13.60;2.55;;;;;;;;;;5044724;28;20052;-67
2024/01/23 10:12:45;;;;;;;9.90;2.40;;;;;;;;;;5047763;28;20049;-67
2024/01/23 10:15:12;;;;;;;9.20;2.55;;;;;;;;;;5049722;28;20049;-68
2024/01/23 10:17:39;;;;;;;16.17;2.58;;;;;;;;;;5037595;28;20107;-67
2024/01/23 10:20:06;;;;;;;12.77;3.10;;;;;;;;;;5043339;28;20049;-67
2024/01/23 10:22:33;;;;;;;9.82;2.17;;;;;;;;;;5039439;28;20057;-67
2024/01/23 10:25:01;;;;;;;10.07;2.53;;;;;;;;;;5049180;28;20052;-68
2024/01/23 10:27:30;;;;;;;10.38;2.80;;;;;;;;;;5038910;28;20044;-67
2024/01/23 10:29:56;;;;;;;15.70;3.15;;;;;;;;;;5049725;28;20127;-67
2024/01/23 10:32:23;;;;;;;11.18;2.53;;;;;;;;;;5049166;28;20128;-67
2024/01/23 10:34:52;;;;;;;13.82;3.03;;;;;;;;;;5049285;28;20049;-67
2024/01/23 10:37:19;;;;;;;7.82;2.22;;;;;;;;;;5048329;28;20048;-67
2024/01/23 10:39:46;;;;;;;10.25;2.38;;;;;;;;;;5038625;28;20056;-67
2024/01/23 10:42:14;;;;;;;9.88;2.88;;;;;;;;;;5042753;28;20432;-67
2024/01/23 10:44:41;;;;;;;14.18;2.97;;;;;;;;;;5040792;28;20040;-67
2024/01/23 10:47:07;;;;;;;10.88;2.25;;;;;;;;;;5035254;28;20044;-67
2024/01/23 10:49:34;;;;;;;11.68;2.58;;;;;;;;;;5041026;28;20432;-67
2024/01/23 10:52:03;;;;;;;11.23;2.33;;;;;;;;;;5046088;28;20251;-67
2024/01/23 10:54:30;;;;;;;9.68;2.88;;;;;;;;;;5036577;28;20059;-67
2024/01/23 10:56:57;;;;;;;15.27;3.25;;;;;;;;;;5048418;28;20490;-67
2024/01/23 10:59:27;;;;;;;9.73;3.22;;;;;;;;;;5047131;28;20393;-67
2024/01/23 11:01:57;;;;;;;9.57;2.38;;;;;;;;;;5049336;28;20044;-67
2024/01/23 11:04:24;;;;;;;14.93;3.78;;;;;;;;;;5049404;28;20057;-68
2024/01/23 11:06:53;;;;;;;10.10;3.10;;;;;;;;;;5044535;28;20048;-67
2024/01/23 11:09:21;;;;;;;15.40;3.65;;;;;;;;;;5037123;28;20244;-67
2024/01/23 11:11:51;;;;;;;13.70;3.90;;;;;;;;;;5038626;28;20045;-67
2024/01/23 11:14:19;;;;;;;12.13;2.92;;;;;;;;;;5039952;28;20161;-67
2024/01/23 11:17:00;;;;;;;19.00;3.60;;;;;;;;;;5042651;28;20521;-67
2024/01/23 11:19:28;;;;;;;12.63;3.20;;;;;;;;;;5036143;28;20048;-67
2024/01/23 11:22:01;;;;;;;11.70;2.63;;;;;;;;;;5033749;28;20620;-67
2024/01/23 11:24:38;;;;;;;11.25;3.15;;;;;;;;;;5042992;28;20046;-67
2024/01/23 11:27:05;;;;;;;8.57;3.50;;;;;;;;;;5045404;28;20057;-67
2024/01/23 11:29:32;;;;;;;13.60;2.92;;;;;;;;;;5045347;28;20059;-67
2024/01/23 11:31:58;;;;;;;15.00;3.17;;;;;;;;;;5041546;28;20132;-67
2024/01/23 11:34:41;;;;;;;14.15;3.08;;;;;;;;;;5035416;28;20132;-67
2024/01/23 11:37:26;;;;;;;12.60;2.88;;;;;;;;;;5044783;28;20056;-67
2024/01/23 11:39:52;;;;;;;12.90;2.65;;;;;;;;;;5050519;28;20236;-67
2024/01/23 11:42:19;;;;;;;9.95;3.17;;;;;;;;;;5042424;28;20045;-67
2024/01/23 11:44:45;;;;;;;14.48;3.25;;;;;;;;;;5043015;28;20131;-67
2024/01/23 11:47:12;;;;;;;10.95;3.10;;;;;;;;;;5035597;28;20049;-67
2024/01/23 11:49:40;;;;;;;15.35;3.20;;;;;;;;;;5051641;28;20056;-67
2024/01/23 11:52:06;;;;;;;12.38;3.60;;;;;;;;;;5049718;28;20046;-67
2024/01/23 11:54:32;;;;;;;11.07;2.78;;;;;;;;;;5047647;28;20052;-67
2024/01/23 11:56:59;;;;;;;11.93;2.83;;;;;;;;;;5049995;28;20056;-67
2024/01/23 11:59:25;;;;;;;10.85;3.58;;;;;;;;;;5040618;28;20549;-67
2024/01/23 12:01:52;;;;;;;14.40;3.55;;;;;;;;;;5043751;28;20300;-67
2024/01/23 12:04:18;;;;;;;15.80;2.85;;;;;;;;;;5051337;28;20051;-67
2024/01/23 12:06:46;;;;;;;15.07;3.63;;;;;;;;;;5041966;28;20508;-67
2024/01/23 12:09:12;;;;;;;15.32;3.55;;;;;;;;;;5039292;28;20041;-67
2024/01/23 12:11:39;;;;;;;10.55;2.78;;;;;;;;;;5049473;28;20063;-67
2024/01/23 12:14:05;;;;;;;8.70;2.60;;;;;;;;;;5036620;28;20049;-67
2024/01/23 12:16:32;;;;;;;11.73;2.75;;;;;;;;;;5043147;28;20584;-67
2024/01/23 12:18:58;;;;;;;11.95;2.88;;;;;;;;;;5050350;28;20133;-67
2024/01/23 12:21:25;;;;;;;11.82;2.53;;;;;;;;;;5041755;28;20053;-67
2024/01/23 12:23:55;;;;;;;16.48;3.05;;;;;;;;;;5042751;28;20536;-67
2024/01/23 12:26:22;;;;;;;17.42;3.42;;;;;;;;;;5052052;28;20083;-67
2024/01/23 12:28:48;;;;;;;10.60;2.90;;;;;;;;;;5046925;28;20045;-67
2024/01/23 12:31:15;;;;;;;10.38;2.47;;;;;;;;;;5034647;28;20111;-67
2024/01/23 12:33:41;;;;;;;15.40;3.60;;;;;;;;;;5039313;28;20041;-68
2024/01/23 12:36:08;;;;;;;11.43;3.30;;;;;;;;;;5045019;28;20132;-67
2024/01/23 12:38:35;;;;;;;21.63;7.72;;;;;;;;;;5043949;28;20045;-67
2024/01/23 12:41:03;;;;;;;11.88;3.40;;;;;;;;;;5048754;28;20060;-67
2024/01/23 12:43:30;;;;;;;12.93;3.10;;;;;;;;;;5052489;28;20053;-67
2024/01/23 12:45:56;;;;;;;15.57;4.30;;;;;;;;;;5042023;28;20049;-67
2024/01/23 12:48:23;;;;;;;13.55;2.30;;;;;;;;;;5048358;28;20515;-67
2024/01/23 12:50:49;;;;;;;11.73;3.13;;;;;;;;;;5042951;28;20416;-67
2024/01/23 12:53:16;;;;;;;16.45;7.25;;;;;;;;;;5052291;28;20135;-67
2024/01/23 12:55:44;;;;;;;19.40;3.85;;;;;;;;;;5052074;28;20114;-68
2024/01/23 12:58:11;;;;;;;17.65;3.63;;;;;;;;;;5045509;28;20071;-68
2024/01/23 13:00:38;;;;;;;15.27;3.38;;;;;;;;;;5048349;28;20735;-67
2024/01/23 13:03:06;;;;;;;13.95;2.83;;;;;;;;;;5044574;28;20045;-67
2024/01/23 13:05:33;;;;;;;13.70;2.83;;;;;;;;;;5052273;28;20057;-68
2024/01/23 13:07:59;;;;;;;28.92;3.42;;;;;;;;;;5036137;28;20063;-67
2024/01/23 13:10:25;;;;;;;10.48;2.55;;;;;;;;;;5050585;28;20527;-67
2024/01/23 13:12:52;;;;;;;13.15;4.60;;;;;;;;;;5052168;28;20049;-67
2024/01/23 13:15:21;;;;;;;14.13;4.00;;;;;;;;;;5052533;28;20065;-67
2024/01/23 13:17:47;;;;;;;12.80;3.88;;;;;;;;;;5052006;28;20484;-67
2024/01/23 13:20:15;;;;;;;11.50;3.92;;;;;;;;;;5051252;28;20045;-67
2024/01/23 13:22:44;;;;;;;12.82;2.80;;;;;;;;;;5051964;28;20045;-67
2024/01/23 13:25:17;;;;;;;10.80;2.50;;;;;;;;;;5052624;28;20068;-67
2024/01/23 13:27:43;;;;;;;10.20;3.13;;;;;;;;;;5051270;28;20049;-67
2024/01/23 13:30:14;;;;;;;9.50;2.75;;;;;;;;;;5051338;28;20045;-67
2024/01/23 13:32:43;;;;;;;15.90;3.08;;;;;;;;;;5051946;28;20048;-67
2024/01/23 13:35:10;;;;;;;13.95;3.47;;;;;;;;;;5050344;28;20041;-67
2024/01/23 13:37:36;;;;;;;15.68;4.05;;;;;;;;;;5051449;28;20049;-66
2024/01/23 13:40:04;;;;;;;15.40;3.50;;;;;;;;;;5051292;28;20504;-67
2024/01/23 13:42:30;;;;;;;18.92;6.00;;;;;;;;;;5052145;28;20045;-67
2024/01/23 13:44:56;;;;;;;15.00;3.20;;;;;;;;;;5052048;28;20061;-67
2024/01/23 13:47:23;;;;;;;13.48;2.83;;;;;;;;;;5051092;28;20045;-67
2024/01/23 13:49:51;;;;;;;14.55;2.67;;;;;;;;;;5045868;28;20052;-67
2024/01/23 13:52:17;;;;;;;10.75;2.72;;;;;;;;;;5051823;28;20099;-67
2024/01/23 13:54:45;;;;;;;15.15;2.72;;;;;;;;;;5051237;28;20048;-66
2024/01/23 13:57:11;;;;;;;14.75;2.70;;;;;;;;;;5051058;28;20049;-67
2024/01/23 13:59:37;;;;;;;11.38;3.33;;;;;;;;;;5050644;28;20049;-67
2024/01/23 14:02:05;;;;;;;11.00;3.28;;;;;;;;;;5051015;28;20516;-67
2024/01/23 14:04:31;;;;;;;9.35;3.28;;;;;;;;;;5052059;28;20052;-67
2024/01/23 14:06:59;;;;;;;11.13;3.28;;;;;;;;;;5051781;28;20045;-67
2024/01/23 14:09:30;;;;;;;13.57;4.55;;;;;;;;;;5050165;28;20504;-66
2024/01/23 14:11:57;;;;;;;10.65;3.40;;;;;;;;;;5051638;28;20467;-67
2024/01/23 14:14:24;;;;;;;16.80;4.00;;;;;;;;;;5051326;28;20525;-67
2024/01/23 14:16:50;;;;;;;20.63;3.58;;;;;;;;;;5051618;28;20041;-68
2024/01/23 14:19:17;;;;;;;15.48;3.50;;;;;;;;;;5049919;28;20055;-67
2024/01/23 14:21:44;;;;;;;12.05;3.00;;;;;;;;;;5051561;28;20045;-67
2024/01/23 14:24:13;;;;;;;10.20;2.30;;;;;;;;;;5051653;28;20558;-67
2024/01/23 14:26:39;;;;;;;12.00;3.17;;;;;;;;;;5048534;28;20056;-67
2024/01/23 14:29:07;;;;;;;14.20;4.40;;;;;;;;;;5049536;28;20056;-67
2024/01/23 14:31:33;;;;;;;10.05;2.75;;;;;;;;;;5051609;28;20139;-66
2024/01/23 14:33:59;;;;;;;10.90;3.03;;;;;;;;;;5051605;28;20075;-67